Time;durP1;ratioP1;P1;durP2;ratioP2;P2;SDS_P1;SDS_P2;PMS_P1;PMS_P2;Temp;Humidity;BMP_temperature;BMP_pressure;BME280_temperature;BME280_humidity;BME280_pressure;Samples;Min_cycle;Max_cycle;Signal;HPM_P1;HPM_P2
2024/01/27 10:49:48;;;;;;;0.40;0.40;;;;;;;8.39;100.00;103692.66;5067202;28;20704;-68
2024/01/27 10:52:18;;;;;;;0.60;0.60;;;;;;;8.41;100.00;103679.16;5067337;28;20037;-69
2024/01/27 10:54:45;;;;;;;0.50;0.50;;;;;;;8.71;100.00;103693.22;5064695;28;20524;-73
2024/01/27 10:57:12;;;;;;;0.60;0.60;;;;;;;9.06;100.00;103692.56;5062949;28;21134;-71
2024/01/27 10:59:41;;;;;;;0.50;0.50;;;;;;;9.20;100.00;103697.47;5047432;28;20033;-69
2024/01/27 11:02:12;;;;;;;0.60;0.60;;;;;;;9.24;100.00;103704.22;5047462;28;20108;-70
2024/01/27 11:04:39;;;;;;;0.40;0.40;;;;;;;9.02;100.00;103690.34;5047166;28;20022;-70
2024/01/27 11:07:06;;;;;;;0.60;0.60;;;;;;;9.25;100.00;103691.66;5047293;28;20025;-72
2024/01/27 11:09:34;;;;;;;0.50;0.50;;;;;;;9.19;100.00;103684.22;5047299;28;20404;-70
2024/01/27 11:12:01;;;;;;;0.47;0.47;;;;;;;9.14;100.00;103681.97;5047022;28;20127;-73
2024/01/27 11:14:26;;;;;;;0.32;0.32;;;;;;;9.23;100.00;103686.47;5060131;28;20037;-72
2024/01/27 11:16:58;;;;;;;0.55;0.55;;;;;;;9.32;100.00;103690.06;5067250;28;20041;-69
2024/01/27 11:19:23;;;;;;;0.73;0.73;;;;;;;9.12;100.00;103685.81;5066774;28;20037;-73
2024/01/27 11:22:02;;;;;;;0.50;0.50;;;;;;;9.13;100.00;103687.47;5067403;28;20036;-68
2024/01/27 11:24:27;;;;;;;0.70;0.70;;;;;;;9.24;100.00;103674.72;5067153;28;20028;-71
2024/01/27 11:27:06;;;;;;;0.55;0.55;;;;;;;9.20;100.00;103677.88;5066850;28;20029;-74
2024/01/27 11:29:33;;;;;;;0.68;0.68;;;;;;;9.14;100.00;103670.41;5066662;28;20116;-71
2024/01/27 11:32:03;;;;;;;0.50;0.50;;;;;;;9.50;100.00;103662.31;5066871;28;20498;-70
2024/01/27 11:34:40;;;;;;;0.57;0.57;;;;;;;9.43;100.00;103673.81;5066615;28;20059;-69
2024/01/27 11:37:12;;;;;;;0.50;0.50;;;;;;;9.78;100.00;103671.22;5065001;28;20081;-71
2024/01/27 11:39:38;;;;;;;0.40;0.40;;;;;;;9.49;100.00;103679.41;5064138;28;20051;-71
2024/01/27 11:42:08;;;;;;;0.40;0.40;;;;;;;9.62;100.00;103676.38;5066024;28;20457;-70
2024/01/27 11:44:35;;;;;;;0.50;0.50;;;;;;;9.71;100.00;103670.97;5063418;28;20033;-72
2024/01/27 11:47:00;;;;;;;0.38;0.38;;;;;;;9.84;100.00;103669.75;5065742;28;20029;-73
2024/01/27 11:49:26;;;;;;;0.50;0.50;;;;;;;10.00;100.00;103664.56;5065333;28;20408;-71
2024/01/27 11:51:52;;;;;;;0.45;0.45;;;;;;;10.05;100.00;103665.78;5065525;28;20024;-71
2024/01/27 11:54:17;;;;;;;0.60;0.60;;;;;;;9.81;100.00;103680.81;5065430;28;20033;-70
2024/01/27 11:56:42;;;;;;;0.50;0.50;;;;;;;9.94;100.00;103673.22;5065133;28;20029;-71
2024/01/27 11:59:10;;;;;;;0.50;0.50;;;;;;;10.22;100.00;103667.66;5063190;28;20052;-71
2024/01/27 12:01:36;;;;;;;0.50;0.50;;;;;;;10.41;100.00;103664.81;5052284;28;20032;-72
2024/01/27 12:04:03;;;;;;;0.35;0.35;;;;;;;10.25;100.00;103678.13;5048824;28;20127;-71
2024/01/27 12:06:29;;;;;;;0.40;0.40;;;;;;;10.34;100.00;103662.88;5052689;28;20029;-72
2024/01/27 12:08:57;;;;;;;0.50;0.50;;;;;;;10.28;100.00;103664.34;5052167;28;20570;-71
2024/01/27 12:11:23;;;;;;;0.40;0.40;;;;;;;10.55;100.00;103672.31;5052241;28;20083;-70
2024/01/27 12:13:48;;;;;;;0.40;0.40;;;;;;;10.80;100.00;103672.50;5052173;28;20031;-71
2024/01/27 12:16:16;;;;;;;0.40;0.40;;;;;;;10.87;100.00;103660.13;5052016;28;20028;-72
2024/01/27 12:18:41;;;;;;;0.28;0.28;;;;;;;10.51;100.00;103664.72;5051821;28;20044;-73
2024/01/27 12:21:06;;;;;;;0.30;0.30;;;;;;;10.43;100.00;103670.91;5050449;28;20037;-76
2024/01/27 12:23:32;;;;;;;0.38;0.38;;;;;;;10.41;100.00;103666.66;5051960;28;20033;-76
2024/01/27 12:25:57;;;;;;;0.45;0.45;;;;;;;10.84;100.00;103649.66;5051357;28;20428;-76
2024/01/27 12:28:23;;;;;;;0.50;0.50;;;;;;;10.90;100.00;103665.19;5052243;28;20115;-72
2024/01/27 12:30:51;;;;;;;0.50;0.50;;;;;;;11.09;100.00;103663.09;5052493;28;20107;-73
2024/01/27 12:33:19;;;;;;;0.50;0.50;;;;;;;11.04;100.00;103657.38;5052415;28;20029;-73
2024/01/27 12:35:46;;;;;;;0.50;0.50;;;;;;;11.43;100.00;103652.34;5052030;28;20112;-72
2024/01/27 12:38:12;;;;;;;0.60;0.60;;;;;;;11.34;100.00;103656.00;5052316;28;20491;-74
2024/01/27 12:40:38;;;;;;;0.40;0.40;;;;;;;11.32;100.00;103648.06;5051942;28;20025;-74
2024/01/27 12:43:03;;;;;;;0.30;0.30;;;;;;;10.83;100.00;103656.88;5051936;28;20540;-75
2024/01/27 12:45:29;;;;;;;0.40;0.40;;;;;;;10.85;100.00;103643.31;5052051;28;20064;-74
2024/01/27 12:47:54;;;;;;;0.40;0.40;;;;;;;11.00;100.00;103649.78;5051801;28;20152;-73
2024/01/27 12:50:20;;;;;;;0.35;0.35;;;;;;;11.42;100.00;103646.09;5052255;28;20776;-73
2024/01/27 12:52:45;;;;;;;0.32;0.32;;;;;;;11.24;100.00;103647.22;5052109;28;20039;-71
2024/01/27 12:55:10;;;;;;;0.40;0.40;;;;;;;10.81;100.00;103642.75;5050588;28;20060;-74
2024/01/27 12:57:36;;;;;;;0.40;0.40;;;;;;;11.27;100.00;103639.66;5050494;28;20447;-74
2024/01/27 13:00:09;;;;;;;0.40;0.40;;;;;;;11.13;100.00;103642.09;5051967;28;20086;-73
2024/01/27 13:02:34;;;;;;;0.50;0.50;;;;;;;11.60;100.00;103634.38;5051867;28;20036;-75
2024/01/27 13:05:00;;;;;;;0.40;0.40;;;;;;;11.61;100.00;103630.69;5051927;28;20035;-75
2024/01/27 13:07:25;;;;;;;0.30;0.30;;;;;;;11.30;100.00;103635.81;5051608;28;20174;-76
2024/01/27 13:09:51;;;;;;;0.50;0.50;;;;;;;10.96;100.00;103635.81;5051624;28;20158;-70
2024/01/27 13:12:16;;;;;;;0.45;0.45;;;;;;;11.17;100.00;103644.31;5049718;28;20115;-70
2024/01/27 13:14:42;;;;;;;0.30;0.30;;;;;;;11.33;100.00;103644.41;5050418;28;20437;-71
2024/01/27 13:17:07;;;;;;;0.50;0.50;;;;;;;11.23;100.00;103643.69;5050270;28;21087;-70
2024/01/27 13:19:33;;;;;;;0.40;0.40;;;;;;;11.46;100.00;103644.78;5050254;28;20043;-70
2024/01/27 13:21:58;;;;;;;0.40;0.40;;;;;;;11.24;100.00;103644.53;5050357;28;20044;-70
2024/01/27 13:24:25;;;;;;;0.30;0.30;;;;;;;11.58;100.00;103647.19;5050537;28;20024;-71
2024/01/27 13:26:51;;;;;;;0.22;0.22;;;;;;;11.21;100.00;103642.13;5050412;28;20423;-71
2024/01/27 13:29:17;;;;;;;0.50;0.50;;;;;;;11.18;100.00;103642.47;5050220;28;20082;-71
2024/01/27 13:31:42;;;;;;;0.40;0.40;;;;;;;11.63;100.00;103634.91;5050036;28;20086;-71
2024/01/27 13:34:08;;;;;;;0.40;0.40;;;;;;;11.47;100.00;103637.56;5049029;28;20055;-70
2024/01/27 13:36:33;;;;;;;0.40;0.40;;;;;;;11.21;100.00;103628.69;5050358;28;20043;-69
2024/01/27 13:38:59;;;;;;;0.50;0.50;;;;;;;11.50;100.00;103624.59;5050218;28;20037;-70
2024/01/27 13:41:25;;;;;;;0.28;0.28;;;;;;;11.46;100.00;103625.94;5049855;28;20059;-69
2024/01/27 13:43:50;;;;;;;0.40;0.40;;;;;;;11.33;100.00;103622.00;5050139;28;20166;-70
2024/01/27 13:46:16;;;;;;;0.50;0.50;;;;;;;11.52;100.00;103621.72;5049374;28;20518;-70
2024/01/27 13:48:41;;;;;;;0.50;0.50;;;;;;;11.31;100.00;103619.50;5048305;28;20061;-69
2024/01/27 13:51:07;;;;;;;0.40;0.40;;;;;;;11.32;99.78;103620.34;5049858;28;20029;-70
2024/01/27 13:53:32;;;;;;;0.43;0.43;;;;;;;11.23;99.83;103624.84;5049816;28;20033;-71
2024/01/27 13:56:00;;;;;;;0.40;0.40;;;;;;;11.29;100.00;103636.78;5049763;28;20484;-66
2024/01/27 13:58:25;;;;;;;0.30;0.30;;;;;;;10.81;99.19;103634.69;5049924;28;20083;-70
2024/01/27 14:00:50;;;;;;;0.40;0.40;;;;;;;11.06;99.49;103630.31;5050066;28;20033;-70
2024/01/27 14:03:16;;;;;;;0.40;0.40;;;;;;;10.91;99.40;103623.84;5049910;28;20031;-69
2024/01/27 14:05:42;;;;;;;0.40;0.40;;;;;;;10.84;99.05;103631.69;5048752;28;20106;-66
2024/01/27 14:08:10;;;;;;;0.60;0.60;;;;;;;10.65;99.98;103636.44;5049912;28;20117;-65
2024/01/27 14:10:35;;;;;;;0.63;0.63;;;;;;;10.78;99.90;103639.53;5049448;28;20413;-70
2024/01/27 14:13:04;;;;;;;0.32;0.32;;;;;;;10.96;98.61;103637.63;5049701;28;20028;-68
2024/01/27 14:15:29;;;;;;;0.35;0.35;;;;;;;11.18;98.72;103635.22;5049462;28;20063;-70
2024/01/27 14:17:55;;;;;;;0.50;0.50;;;;;;;11.49;98.47;103631.00;5049198;28;20061;-73
2024/01/27 14:20:20;;;;;;;0.38;0.38;;;;;;;11.46;98.74;103636.69;5049375;28;20028;-72
2024/01/27 14:22:46;;;;;;;0.50;0.50;;;;;;;11.18;97.86;103639.78;5049117;28;20029;-62
2024/01/27 14:25:12;;;;;;;0.50;0.50;;;;;;;11.29;98.03;103637.66;5049544;28;20113;-62
2024/01/27 14:27:37;;;;;;;0.60;0.60;;;;;;;11.03;97.17;103634.16;5049142;28;20041;-63
2024/01/27 14:30:03;;;;;;;0.50;0.50;;;;;;;11.01;95.38;103641.53;5049407;28;20057;-71
2024/01/27 14:32:28;;;;;;;0.50;0.50;;;;;;;10.92;96.88;103634.44;5049089;28;20515;-65
2024/01/27 14:34:53;;;;;;;0.50;0.50;;;;;;;11.07;98.99;103629.28;5049715;28;20105;-66
2024/01/27 14:37:19;;;;;;;0.32;0.32;;;;;;;11.25;99.55;103619.28;5048905;28;20116;-71
2024/01/27 14:39:45;;;;;;;0.50;0.50;;;;;;;11.18;98.67;103624.44;5049601;28;20044;-72
2024/01/27 14:42:17;;;;;;;0.40;0.40;;;;;;;11.25;100.00;103625.50;5049121;28;20090;-73
2024/01/27 14:44:42;;;;;;;0.50;0.50;;;;;;;11.44;99.17;103614.47;5049034;28;20032;-71
2024/01/27 14:47:09;;;;;;;0.40;0.40;;;;;;;11.31;98.01;103621.31;5049054;28;20032;-72
2024/01/27 14:49:36;;;;;;;0.40;0.40;;;;;;;11.19;96.86;103606.47;5048636;28;20527;-72
2024/01/27 14:52:01;;;;;;;0.30;0.30;;;;;;;11.01;97.50;103606.56;5048154;28;20033;-73
2024/01/27 14:54:27;;;;;;;0.55;0.55;;;;;;;11.25;98.25;103612.06;5048801;28;20086;-71
2024/01/27 14:56:52;;;;;;;0.40;0.40;;;;;;;11.45;96.60;103626.09;5048542;28;20105;-71
2024/01/27 14:59:18;;;;;;;0.60;0.60;;;;;;;11.41;96.38;103622.03;5049040;28;20117;-71
2024/01/27 15:01:46;;;;;;;0.40;0.40;;;;;;;11.87;93.82;103623.38;5048999;28;20029;-71
2024/01/27 15:04:11;;;;;;;0.43;0.43;;;;;;;11.88;93.32;103625.91;5048954;28;20044;-71
2024/01/27 15:06:38;;;;;;;0.40;0.40;;;;;;;11.70;93.61;103627.88;5049267;28;20068;-71
2024/01/27 15:09:03;;;;;;;0.45;0.45;;;;;;;11.76;95.35;103635.31;5048964;28;20058;-72
2024/01/27 15:11:29;;;;;;;0.40;0.40;;;;;;;11.53;96.17;103639.59;5047381;28;20564;-71
2024/01/27 15:13:55;;;;;;;0.40;0.40;;;;;;;10.98;97.86;103643.69;5046522;28;20132;-73
2024/01/27 15:16:21;;;;;;;0.50;0.50;;;;;;;11.18;100.00;103640.59;5047737;28;20029;-71
2024/01/27 15:18:46;;;;;;;0.40;0.40;;;;;;;11.04;99.75;103643.06;5048527;28;20041;-72
2024/01/27 15:21:12;;;;;;;0.50;0.50;;;;;;;11.07;100.00;103640.03;5047947;28;20697;-74
2024/01/27 15:23:37;;;;;;;0.50;0.50;;;;;;;11.08;100.00;103630.97;5048160;28;20060;-72
2024/01/27 15:26:05;;;;;;;0.40;0.40;;;;;;;11.17;100.00;103630.84;5047556;28;20086;-74
2024/01/27 15:28:31;;;;;;;0.30;0.30;;;;;;;10.93;100.00;103632.59;5047392;28;20035;-73
2024/01/27 15:30:57;;;;;;;0.35;0.35;;;;;;;10.68;100.00;103633.41;5047337;28;20033;-73
2024/01/27 15:33:22;;;;;;;0.45;0.45;;;;;;;10.29;100.00;103630.28;5047747;28;20029;-70
2024/01/27 15:35:47;;;;;;;0.50;0.50;;;;;;;10.61;100.00;103625.97;5050958;28;20074;-72
2024/01/27 15:38:13;;;;;;;0.50;0.50;;;;;;;10.67;100.00;103637.97;5052788;28;20136;-73
2024/01/27 15:40:38;;;;;;;0.30;0.30;;;;;;;10.58;100.00;103633.50;5052545;28;20112;-74
2024/01/27 15:43:04;;;;;;;0.50;0.50;;;;;;;11.02;100.00;103631.63;5052413;28;20450;-73
2024/01/27 15:45:30;;;;;;;0.40;0.40;;;;;;;10.60;100.00;103624.31;5052372;28;20033;-75
2024/01/27 15:47:56;;;;;;;0.47;0.47;;;;;;;10.53;100.00;103631.28;5052040;28;20074;-73
2024/01/27 15:50:26;;;;;;;0.50;0.50;;;;;;;10.49;100.00;103624.56;5052318;28;20100;-73
2024/01/27 15:52:51;;;;;;;0.50;0.50;;;;;;;10.56;100.00;103632.84;5032468;28;20064;-74
2024/01/27 15:55:17;;;;;;;0.32;0.32;;;;;;;10.42;100.00;103639.63;5032356;28;20033;-73
2024/01/27 15:57:42;;;;;;;0.20;0.20;;;;;;;10.42;100.00;103642.31;5032410;28;20637;-72
2024/01/27 16:00:10;;;;;;;0.30;0.30;;;;;;;10.17;100.00;103636.88;5032245;28;20496;-72
2024/01/27 16:02:36;;;;;;;0.40;0.40;;;;;;;9.96;100.00;103644.38;5032143;28;20041;-74
2024/01/27 16:05:01;;;;;;;0.40;0.40;;;;;;;10.01;100.00;103640.22;5032203;28;20034;-73
2024/01/27 16:07:27;;;;;;;0.60;0.60;;;;;;;10.08;100.00;103632.41;5042394;28;20114;-71
2024/01/27 16:09:55;;;;;;;0.28;0.28;;;;;;;9.92;100.00;103640.28;5051897;28;20111;-68
2024/01/27 16:12:21;;;;;;;0.50;0.50;;;;;;;9.84;100.00;103641.06;5051649;28;20546;-72
2024/01/27 16:14:46;;;;;;;0.28;0.28;;;;;;;9.70;100.00;103650.47;5050797;28;20045;-71
2024/01/27 16:17:11;;;;;;;0.50;0.50;;;;;;;9.71;100.00;103648.63;5050421;28;20029;-70
2024/01/27 16:19:37;;;;;;;0.40;0.40;;;;;;;9.66;100.00;103637.50;5050936;28;20040;-72
2024/01/27 16:22:02;;;;;;;0.30;0.30;;;;;;;9.51;100.00;103644.38;5051625;28;20033;-72
2024/01/27 16:24:28;;;;;;;0.40;0.40;;;;;;;9.50;100.00;103645.38;5051701;28;20043;-73
2024/01/27 16:26:53;;;;;;;0.30;0.30;;;;;;;9.64;100.00;103631.44;5051468;28;20115;-71
2024/01/27 16:29:18;;;;;;;0.50;0.50;;;;;;;9.57;100.00;103633.06;5050171;28;20055;-75
2024/01/27 16:31:44;;;;;;;0.30;0.30;;;;;;;9.28;100.00;103640.38;5051247;28;20029;-70
2024/01/27 16:34:09;;;;;;;0.50;0.50;;;;;;;9.41;100.00;103635.53;5051517;28;20439;-72
2024/01/27 16:36:35;;;;;;;0.50;0.50;;;;;;;9.58;100.00;103637.41;5050738;28;20036;-71
2024/01/27 16:39:00;;;;;;;0.60;0.60;;;;;;;9.54;100.00;103633.34;5051539;28;20029;-71
2024/01/27 16:41:25;;;;;;;0.38;0.38;;;;;;;9.51;100.00;103633.66;5050903;28;20457;-71
2024/01/27 16:43:53;;;;;;;0.32;0.32;;;;;;;9.37;100.00;103639.50;5051616;28;20068;-71
2024/01/27 16:46:18;;;;;;;0.60;0.60;;;;;;;9.14;100.00;103633.66;5051902;28;20029;-71
2024/01/27 16:48:44;;;;;;;0.30;0.30;;;;;;;8.89;100.00;103645.06;5051745;28;20099;-71
2024/01/27 16:51:09;;;;;;;0.32;0.32;;;;;;;8.96;100.00;103648.88;5051935;28;20032;-71
2024/01/27 16:53:35;;;;;;;0.47;0.47;;;;;;;8.93;100.00;103635.72;5052063;28;20041;-69
2024/01/27 16:56:01;;;;;;;0.25;0.25;;;;;;;9.02;100.00;103631.34;5051983;28;20025;-71
2024/01/27 16:58:26;;;;;;;0.30;0.30;;;;;;;8.97;100.00;103634.44;5051641;28;20116;-71
2024/01/27 17:00:52;;;;;;;0.38;0.38;;;;;;;8.88;100.00;103638.84;5051377;28;20041;-70
2024/01/27 17:03:18;;;;;;;0.40;0.40;;;;;;;8.71;100.00;103639.59;5051789;28;20060;-71
2024/01/27 17:05:43;;;;;;;0.20;0.20;;;;;;;8.67;100.00;103638.19;5051745;28;20040;-71
2024/01/27 17:08:09;;;;;;;0.30;0.30;;;;;;;8.67;100.00;103634.66;5051672;28;20156;-70
2024/01/27 17:10:34;;;;;;;0.35;0.35;;;;;;;8.54;100.00;103640.34;5051609;28;20044;-71
2024/01/27 17:13:00;;;;;;;0.60;0.60;;;;;;;8.36;100.00;103633.16;5051251;28;20116;-72
2024/01/27 17:15:26;;;;;;;0.30;0.30;;;;;;;8.42;100.00;103636.13;5051408;28;20100;-71
2024/01/27 17:17:51;;;;;;;0.50;0.50;;;;;;;8.27;100.00;103637.56;5051306;28;20025;-71
2024/01/27 17:20:17;;;;;;;0.50;0.50;;;;;;;8.40;100.00;103627.38;5050848;28;20044;-71
2024/01/27 17:22:42;;;;;;;0.30;0.30;;;;;;;8.36;100.00;103628.66;5050273;28;20032;-71
2024/01/27 17:25:08;;;;;;;0.60;0.60;;;;;;;8.32;100.00;103646.00;5050270;28;20028;-71
2024/01/27 17:27:34;;;;;;;0.30;0.30;;;;;;;8.22;100.00;103630.88;5050365;28;20032;-70
2024/01/27 17:30:03;;;;;;;0.30;0.30;;;;;;;8.32;100.00;103639.78;5049465;28;20393;-70
2024/01/27 17:32:29;;;;;;;0.30;0.30;;;;;;;8.35;100.00;103637.69;5050546;28;20036;-70
2024/01/27 17:34:54;;;;;;;0.40;0.40;;;;;;;8.28;100.00;103635.72;5050929;28;20408;-69
2024/01/27 17:37:20;;;;;;;0.47;0.47;;;;;;;8.18;100.00;103641.03;5050705;28;20029;-70
2024/01/27 17:39:45;;;;;;;0.30;0.30;;;;;;;7.69;100.00;103652.69;5051392;28;20092;-72
2024/01/27 17:42:11;;;;;;;0.40;0.40;;;;;;;8.17;100.00;103646.53;5050505;28;20104;-71
2024/01/27 17:44:36;;;;;;;0.43;0.43;;;;;;;7.91;100.00;103652.44;5050476;28;20374;-70
2024/01/27 17:47:02;;;;;;;0.30;0.30;;;;;;;8.07;100.00;103649.22;5049781;28;20104;-71
2024/01/27 17:49:27;;;;;;;0.35;0.35;;;;;;;7.75;100.00;103648.59;5049520;28;20128;-70
2024/01/27 17:51:53;;;;;;;0.40;0.40;;;;;;;7.94;100.00;103654.84;5050247;28;20099;-69
2024/01/27 17:54:19;;;;;;;0.32;0.32;;;;;;;8.00;100.00;103648.94;5050129;28;20134;-70
2024/01/27 17:56:44;;;;;;;0.50;0.50;;;;;;;7.91;100.00;103656.94;5049178;28;20045;-71
2024/01/27 17:59:10;;;;;;;0.30;0.30;;;;;;;7.78;100.00;103654.53;5046007;28;20028;-70
2024/01/27 18:01:35;;;;;;;0.35;0.35;;;;;;;7.68;100.00;103658.19;5049800;28;20108;-70
2024/01/27 18:04:00;;;;;;;0.30;0.30;;;;;;;7.71;100.00;103657.91;5049930;28;20080;-69
2024/01/27 18:06:27;;;;;;;0.40;0.40;;;;;;;7.68;100.00;103652.84;5049037;28;20033;-70
2024/01/27 18:08:53;;;;;;;0.43;0.43;;;;;;;7.60;100.00;103650.84;5047069;28;20056;-71
2024/01/27 18:11:18;;;;;;;0.30;0.30;;;;;;;7.65;100.00;103658.44;5049079;28;20770;-70
2024/01/27 18:13:46;;;;;;;0.25;0.25;;;;;;;7.51;100.00;103654.31;5048843;28;20120;-73
2024/01/27 18:16:13;;;;;;;0.47;0.47;;;;;;;7.51;100.00;103654.31;5048862;28;20143;-71
2024/01/27 18:18:39;;;;;;;0.30;0.30;;;;;;;7.49;100.00;103656.28;5048068;28;20037;-70
2024/01/27 18:21:04;;;;;;;0.30;0.30;;;;;;;7.44;100.00;103653.19;5048708;28;20029;-71
2024/01/27 18:23:30;;;;;;;0.38;0.38;;;;;;;7.39;100.00;103654.59;5048640;28;20525;-70
2024/01/27 18:25:55;;;;;;;0.30;0.30;;;;;;;7.30;100.00;103650.03;5049018;28;20108;-70
2024/01/27 18:28:21;;;;;;;0.50;0.50;;;;;;;7.30;100.00;103652.69;5048949;28;20112;-71
2024/01/27 18:30:46;;;;;;;0.40;0.40;;;;;;;7.34;100.00;103662.16;5049326;28;20024;-70
2024/01/27 18:33:13;;;;;;;0.43;0.43;;;;;;;7.25;100.00;103661.16;5049234;28;20104;-70
2024/01/27 18:35:38;;;;;;;0.50;0.50;;;;;;;7.36;100.00;103666.41;5046179;28;20086;-70
2024/01/27 18:38:04;;;;;;;0.38;0.38;;;;;;;7.26;100.00;103670.84;5048841;28;20025;-70
2024/01/27 18:40:29;;;;;;;0.20;0.20;;;;;;;7.29;100.00;103662.56;5048301;28;20032;-70
2024/01/27 18:42:54;;;;;;;0.40;0.40;;;;;;;7.23;100.00;103657.75;5047926;28;20431;-69
2024/01/27 18:45:20;;;;;;;0.40;0.40;;;;;;;7.13;100.00;103654.19;5048835;28;20025;-71
2024/01/27 18:47:45;;;;;;;0.43;0.43;;;;;;;7.18;100.00;103648.44;5048150;28;20049;-70
2024/01/27 18:50:11;;;;;;;0.60;0.60;;;;;;;7.11;100.00;103650.81;5048667;28;20111;-69
2024/01/27 18:52:40;;;;;;;0.40;0.40;;;;;;;7.16;100.00;103647.72;5048573;28;20139;-71
2024/01/27 18:55:08;;;;;;;0.40;0.40;;;;;;;7.05;100.00;103643.31;5048555;28;20031;-72
2024/01/27 18:57:34;;;;;;;0.30;0.30;;;;;;;7.00;100.00;103654.41;5047892;28;20048;-71
2024/01/27 18:59:59;;;;;;;0.50;0.50;;;;;;;7.13;100.00;103655.03;5047272;28;20040;-69
2024/01/27 19:02:25;;;;;;;0.40;0.40;;;;;;;7.11;100.00;103653.47;5047193;28;20033;-70
2024/01/27 19:04:51;;;;;;;0.52;0.52;;;;;;;7.14;100.00;103658.53;5045323;28;20272;-71
2024/01/27 19:07:16;;;;;;;0.35;0.35;;;;;;;7.15;100.00;103654.91;5047551;28;20108;-70
2024/01/27 19:09:41;;;;;;;0.30;0.30;;;;;;;7.19;100.00;103653.66;5048108;28;20029;-70
2024/01/27 19:12:07;;;;;;;0.60;0.60;;;;;;;7.15;100.00;103659.41;5049914;28;20112;-69
2024/01/27 19:14:32;;;;;;;0.40;0.40;;;;;;;7.09;100.00;103655.44;5051171;28;20464;-70
2024/01/27 19:17:01;;;;;;;0.47;0.47;;;;;;;7.01;100.00;103649.91;5050726;28;20032;-71
2024/01/27 19:19:26;;;;;;;0.50;0.50;;;;;;;7.16;100.00;103653.06;5051064;28;20043;-70
2024/01/27 19:21:52;;;;;;;0.30;0.30;;;;;;;7.20;100.00;103657.16;5051262;28;20020;-70
2024/01/27 19:24:18;;;;;;;0.40;0.40;;;;;;;7.26;100.00;103654.81;5050844;28;20120;-70
2024/01/27 19:26:43;;;;;;;0.50;0.50;;;;;;;7.18;100.00;103659.97;5050515;28;20025;-71
2024/01/27 19:29:09;;;;;;;0.30;0.30;;;;;;;7.26;100.00;103656.63;5047087;28;20044;-72
2024/01/27 19:31:36;;;;;;;0.40;0.40;;;;;;;7.32;100.00;103648.06;5047470;28;20114;-70
2024/01/27 19:34:02;;;;;;;0.30;0.30;;;;;;;7.47;100.00;103650.22;5039372;28;20400;-70
2024/01/27 19:36:27;;;;;;;0.40;0.40;;;;;;;7.50;100.00;103641.94;5034045;28;20029;-70
2024/01/27 19:38:52;;;;;;;0.40;0.40;;;;;;;7.21;100.00;103637.47;5031250;28;20396;-69
2024/01/27 19:41:19;;;;;;;0.38;0.38;;;;;;;7.08;100.00;103632.34;5031226;28;20468;-69
2024/01/27 19:43:46;;;;;;;0.43;0.43;;;;;;;7.29;100.00;103634.97;5039073;28;20170;-70
2024/01/27 19:46:12;;;;;;;0.50;0.50;;;;;;;7.29;100.00;103641.19;5031953;28;20029;-70
2024/01/27 19:48:37;;;;;;;0.45;0.45;;;;;;;7.13;100.00;103648.84;5044406;28;20085;-72
2024/01/27 19:51:03;;;;;;;0.40;0.40;;;;;;;7.13;100.00;103644.31;5051754;28;20048;-70
2024/01/27 19:53:28;;;;;;;0.50;0.50;;;;;;;7.26;100.00;103654.81;5040036;28;20034;-72
2024/01/27 19:55:54;;;;;;;0.50;0.50;;;;;;;7.18;100.00;103659.13;5031516;28;20077;-70
2024/01/27 19:58:20;;;;;;;0.40;0.40;;;;;;;7.16;100.00;103650.38;5035156;28;20113;-70
2024/01/27 20:00:45;;;;;;;0.30;0.30;;;;;;;7.09;100.00;103642.91;5030033;28;20572;-70
2024/01/27 20:03:10;;;;;;;0.40;0.40;;;;;;;7.04;100.00;103646.97;5032779;28;20027;-70
2024/01/27 20:05:36;;;;;;;0.50;0.50;;;;;;;7.06;100.00;103640.50;5044048;28;20040;-70
2024/01/27 20:08:01;;;;;;;0.50;0.50;;;;;;;7.11;100.00;103642.78;5051472;28;20028;-70
2024/01/27 20:10:27;;;;;;;0.40;0.40;;;;;;;7.00;100.00;103650.88;5051559;28;20154;-70
2024/01/27 20:12:56;;;;;;;0.43;0.43;;;;;;;7.00;100.00;103649.06;5049248;28;20469;-70
2024/01/27 20:15:23;;;;;;;0.50;0.50;;;;;;;7.08;100.00;103641.22;5051028;28;20070;-70
2024/01/27 20:17:49;;;;;;;0.30;0.30;;;;;;;7.08;100.00;103638.53;5051043;28;20853;-70
2024/01/27 20:20:14;;;;;;;0.40;0.40;;;;;;;6.98;100.00;103632.31;5050879;28;20108;-71
2024/01/27 20:22:40;;;;;;;0.40;0.40;;;;;;;6.99;100.00;103635.84;5051011;28;20416;-72
2024/01/27 20:25:05;;;;;;;0.45;0.45;;;;;;;7.02;100.00;103643.56;5051002;28;20488;-69
2024/01/27 20:27:31;;;;;;;0.40;0.40;;;;;;;7.01;100.00;103629.38;5050264;28;20033;-70
2024/01/27 20:29:56;;;;;;;0.60;0.60;;;;;;;6.97;100.00;103633.31;5050987;28;20036;-70
2024/01/27 20:32:22;;;;;;;0.50;0.50;;;;;;;6.87;100.00;103627.06;5051064;28;20472;-69
2024/01/27 20:34:47;;;;;;;0.60;0.60;;;;;;;6.85;100.00;103629.00;5050997;28;20064;-70
2024/01/27 20:37:12;;;;;;;0.32;0.32;;;;;;;6.75;100.00;103624.59;5045308;28;20037;-68
2024/01/27 20:39:41;;;;;;;0.40;0.40;;;;;;;6.75;100.00;103624.59;5042578;28;20476;-69
2024/01/27 20:42:07;;;;;;;0.50;0.50;;;;;;;6.77;100.00;103636.00;5050011;28;20570;-71
2024/01/27 20:44:33;;;;;;;0.30;0.30;;;;;;;6.62;100.00;103626.63;5050598;28;20037;-69
2024/01/27 20:46:58;;;;;;;0.35;0.35;;;;;;;6.65;100.00;103621.88;5050654;28;20476;-70
2024/01/27 20:49:23;;;;;;;0.50;0.50;;;;;;;6.73;100.00;103622.06;5050218;28;20045;-70
2024/01/27 20:51:51;;;;;;;0.60;0.60;;;;;;;6.73;100.00;103610.50;5049325;28;20036;-73
2024/01/27 20:54:17;;;;;;;0.40;0.40;;;;;;;6.73;100.00;103610.50;5035616;28;20033;-69
2024/01/27 20:56:42;;;;;;;0.40;0.40;;;;;;;6.84;100.00;103618.47;5039521;28;20275;-69
2024/01/27 20:59:08;;;;;;;0.32;0.32;;;;;;;6.89;100.00;103606.38;5035372;28;20063;-71
2024/01/27 21:01:38;;;;;;;0.47;0.47;;;;;;;6.80;100.00;103612.50;5044220;28;20033;-70
2024/01/27 21:04:10;;;;;;;0.30;0.30;;;;;;;6.74;100.00;103614.88;5044730;28;20111;-72
2024/01/27 21:06:36;;;;;;;0.47;0.47;;;;;;;6.93;100.00;103605.16;5049049;28;20477;-71
2024/01/27 21:09:05;;;;;;;0.60;0.60;;;;;;;7.00;100.00;103608.97;5046521;28;20547;-71
2024/01/27 21:11:31;;;;;;;0.50;0.50;;;;;;;6.77;100.00;103595.91;5038442;28;20041;-69
2024/01/27 21:13:57;;;;;;;0.50;0.50;;;;;;;6.66;100.00;103604.84;5033152;28;20029;-69
2024/01/27 21:16:22;;;;;;;0.30;0.30;;;;;;;6.64;100.00;103598.81;5030087;28;20037;-68
2024/01/27 21:18:47;;;;;;;0.40;0.40;;;;;;;6.51;100.00;103606.16;5035047;28;20575;-72
2024/01/27 21:21:13;;;;;;;0.55;0.55;;;;;;;6.52;100.00;103607.88;5034639;28;20056;-69
2024/01/27 21:23:38;;;;;;;0.50;0.50;;;;;;;6.46;100.00;103608.41;5046978;28;20037;-71
2024/01/27 21:26:04;;;;;;;0.40;0.40;;;;;;;6.40;100.00;103605.38;5033453;28;20100;-69
2024/01/27 21:28:29;;;;;;;0.30;0.30;;;;;;;6.36;100.00;103599.47;5036241;28;20048;-70
2024/01/27 21:30:55;;;;;;;0.43;0.43;;;;;;;6.31;100.00;103595.50;5029843;28;20025;-71
2024/01/27 21:33:20;;;;;;;0.40;0.40;;;;;;;6.21;100.00;103600.78;5028921;28;20101;-70
2024/01/27 21:35:45;;;;;;;0.30;0.30;;;;;;;6.06;100.00;103605.56;5042430;28;20183;-71
2024/01/27 21:38:11;;;;;;;0.55;0.55;;;;;;;6.19;100.00;103598.22;5048945;28;20024;-69
2024/01/27 21:40:37;;;;;;;0.50;0.50;;;;;;;5.89;100.00;103602.59;5034776;28;20550;-69
2024/01/27 21:43:04;;;;;;;0.60;0.60;;;;;;;5.64;100.00;103597.56;5029417;28;20037;-70
2024/01/27 21:45:30;;;;;;;0.40;0.40;;;;;;;6.12;100.00;103597.03;5030973;28;20389;-69
2024/01/27 21:47:55;;;;;;;0.50;0.50;;;;;;;6.37;100.00;103603.00;5046559;28;20049;-68
2024/01/27 21:50:20;;;;;;;0.40;0.40;;;;;;;6.25;100.00;103596.00;5036962;28;20049;-70
2024/01/27 21:52:47;;;;;;;0.30;0.30;;;;;;;6.07;100.00;103590.41;5035715;28;20041;-70
2024/01/27 21:55:13;;;;;;;0.40;0.40;;;;;;;6.03;100.00;103592.44;5029882;28;20029;-69
2024/01/27 21:57:39;;;;;;;0.40;0.40;;;;;;;5.95;100.00;103584.28;5043877;28;20032;-69
2024/01/27 22:00:05;;;;;;;0.60;0.60;;;;;;;5.96;100.00;103585.94;5048890;28;20013;-69
2024/01/27 22:02:34;;;;;;;0.40;0.40;;;;;;;5.90;100.00;103575.78;5049027;28;20027;-69
2024/01/27 22:04:59;;;;;;;0.60;0.60;;;;;;;5.86;100.00;103577.00;5048975;28;20060;-69
2024/01/27 22:07:24;;;;;;;0.32;0.32;;;;;;;5.75;100.00;103570.84;5048788;28;20116;-70